Palisade, Minnesota
Current Conditions -  °F | °C
As of 1:25 AM on Thursday 23 Oct 2014 (Local Time) from KHZX Reporting Station
Overcast Overcast  
Wind Chill: 50°   Ceiling: 2400
Heat Index: 50°   Visibility: 10mi
Dew Point: 45°   Wind: 8mph
Humidity: 82%   Direction: 180°S
Pressure: 29.96"   Gusts: 16mph
Location:  46.71°N, 93.49°W
Report Text: KHZX 230625Z AUTO 18007G14KT 10SM OVC024 10/07 A2996 RMK AO2
Loading
Personal Weather Stations






























Interactive Weather Map
Tropical Storm Tracking
New forecast layout! Learn more

10-Day Weather Forecast

Advertisements
Track Severe Weather on mobile